sensor_id;sensor_type;location;lat;lon;timestamp;P1;durP1;ratioP1;P2;durP2;ratioP2
39044;SDS011;52192;52.002;5.956;2022-12-01T00:02:19;14.77;;;7.25;;
39044;SDS011;52192;52.002;5.956;2022-12-01T00:04:46;13.07;;;7.45;;
39044;SDS011;52192;52.002;5.956;2022-12-01T00:07:13;11.00;;;6.40;;
39044;SDS011;52192;52.002;5.956;2022-12-01T00:09:38;12.57;;;7.10;;
39044;SDS011;52192;52.002;5.956;2022-12-01T00:12:22;15.18;;;7.38;;
39044;SDS011;52192;52.002;5.956;2022-12-01T00:14:48;16.85;;;8.68;;
39044;SDS011;52192;52.002;5.956;2022-12-01T00:17:19;12.77;;;7.50;;
39044;SDS011;52192;52.002;5.956;2022-12-01T00:19:45;13.15;;;7.03;;
39044;SDS011;52192;52.002;5.956;2022-12-01T00:22:11;12.07;;;6.63;;
39044;SDS011;52192;52.002;5.956;2022-12-01T00:24:37;12.48;;;6.38;;
39044;SDS011;52192;52.002;5.956;2022-12-01T00:27:03;11.38;;;5.45;;
39044;SDS011;52192;52.002;5.956;2022-12-01T00:29:29;11.50;;;6.90;;
39044;SDS011;52192;52.002;5.956;2022-12-01T00:31:55;14.20;;;6.82;;
39044;SDS011;52192;52.002;5.956;2022-12-01T00:34:21;17.33;;;6.78;;
39044;SDS011;52192;52.002;5.956;2022-12-01T00:36:48;14.20;;;7.97;;
39044;SDS011;52192;52.002;5.956;2022-12-01T00:39:14;11.40;;;6.70;;
39044;SDS011;52192;52.002;5.956;2022-12-01T00:41:40;10.38;;;6.82;;
39044;SDS011;52192;52.002;5.956;2022-12-01T00:44:06;9.38;;;5.57;;
39044;SDS011;52192;52.002;5.956;2022-12-01T00:46:32;18.70;;;6.55;;
39044;SDS011;52192;52.002;5.956;2022-12-01T00:48:57;16.92;;;7.82;;
39044;SDS011;52192;52.002;5.956;2022-12-01T00:51:23;12.27;;;6.45;;
39044;SDS011;52192;52.002;5.956;2022-12-01T00:53:49;11.05;;;7.03;;
39044;SDS011;52192;52.002;5.956;2022-12-01T00:56:14;14.80;;;7.63;;
39044;SDS011;52192;52.002;5.956;2022-12-01T00:58:40;14.52;;;8.15;;
39044;SDS011;52192;52.002;5.956;2022-12-01T01:01:06;11.65;;;7.38;;
39044;SDS011;52192;52.002;5.956;2022-12-01T01:03:32;10.00;;;6.85;;
39044;SDS011;52192;52.002;5.956;2022-12-01T01:06:04;13.68;;;7.15;;
39044;SDS011;52192;52.002;5.956;2022-12-01T01:08:32;14.98;;;7.88;;
39044;SDS011;52192;52.002;5.956;2022-12-01T01:10:58;12.40;;;7.47;;
39044;SDS011;52192;52.002;5.956;2022-12-01T01:13:25;13.13;;;7.93;;
39044;SDS011;52192;52.002;5.956;2022-12-01T01:16:24;14.38;;;7.60;;
39044;SDS011;52192;52.002;5.956;2022-12-01T01:18:44;11.40;;;7.43;;
39044;SDS011;52192;52.002;5.956;2022-12-01T01:21:12;11.52;;;6.55;;
39044;SDS011;52192;52.002;5.956;2022-12-01T01:23:39;12.13;;;6.57;;
39044;SDS011;52192;52.002;5.956;2022-12-01T01:26:06;12.98;;;6.75;;
39044;SDS011;52192;52.002;5.956;2022-12-01T01:28:35;12.23;;;7.20;;
39044;SDS011;52192;52.002;5.956;2022-12-01T01:31:04;12.20;;;7.18;;
39044;SDS011;52192;52.002;5.956;2022-12-01T01:33:31;11.57;;;7.68;;
39044;SDS011;52192;52.002;5.956;2022-12-01T01:35:58;16.67;;;8.48;;
39044;SDS011;52192;52.002;5.956;2022-12-01T01:38:24;13.65;;;7.95;;
39044;SDS011;52192;52.002;5.956;2022-12-01T01:40:50;12.68;;;7.07;;
39044;SDS011;52192;52.002;5.956;2022-12-01T01:43:17;12.82;;;7.30;;
39044;SDS011;52192;52.002;5.956;2022-12-01T01:46:03;12.90;;;7.85;;
39044;SDS011;52192;52.002;5.956;2022-12-01T01:48:29;13.77;;;7.88;;
39044;SDS011;52192;52.002;5.956;2022-12-01T01:50:56;8.23;;;5.53;;
39044;SDS011;52192;52.002;5.956;2022-12-01T01:53:22;15.00;;;7.63;;
39044;SDS011;52192;52.002;5.956;2022-12-01T01:55:48;12.65;;;7.05;;
39044;SDS011;52192;52.002;5.956;2022-12-01T01:58:13;13.18;;;6.72;;
39044;SDS011;52192;52.002;5.956;2022-12-01T02:00:40;16.02;;;8.15;;
39044;SDS011;52192;52.002;5.956;2022-12-01T02:03:08;12.50;;;7.88;;
39044;SDS011;52192;52.002;5.956;2022-12-01T02:05:37;20.88;;;8.60;;
39044;SDS011;52192;52.002;5.956;2022-12-01T02:08:04;18.02;;;9.80;;
39044;SDS011;52192;52.002;5.956;2022-12-01T02:19:27;14.27;;;6.88;;
39044;SDS011;52192;52.002;5.956;2022-12-01T02:30:08;13.38;;;7.32;;
39044;SDS011;52192;52.002;5.956;2022-12-01T02:32:42;13.18;;;7.80;;
39044;SDS011;52192;52.002;5.956;2022-12-01T02:40:35;16.23;;;8.43;;
39044;SDS011;52192;52.002;5.956;2022-12-01T02:46:10;18.88;;;9.65;;
39044;SDS011;52192;52.002;5.956;2022-12-01T02:48:47;10.85;;;8.25;;
39044;SDS011;52192;52.002;5.956;2022-12-01T02:51:24;17.40;;;9.40;;
39044;SDS011;52192;52.002;5.956;2022-12-01T02:53:55;15.13;;;8.73;;
39044;SDS011;52192;52.002;5.956;2022-12-01T02:56:23;15.18;;;7.85;;
39044;SDS011;52192;52.002;5.956;2022-12-01T02:58:49;13.60;;;7.40;;
39044;SDS011;52192;52.002;5.956;2022-12-01T03:06:39;14.88;;;8.90;;
39044;SDS011;52192;52.002;5.956;2022-12-01T03:09:13;17.50;;;8.13;;
39044;SDS011;52192;52.002;5.956;2022-12-01T03:12:06;17.73;;;8.63;;
39044;SDS011;52192;52.002;5.956;2022-12-01T03:15:02;14.27;;;8.15;;
39044;SDS011;52192;52.002;5.956;2022-12-01T03:17:48;16.67;;;9.93;;
39044;SDS011;52192;52.002;5.956;2022-12-01T03:20:33;16.73;;;9.20;;
39044;SDS011;52192;52.002;5.956;2022-12-01T03:23:12;20.33;;;9.57;;
39044;SDS011;52192;52.002;5.956;2022-12-01T03:25:43;19.38;;;9.90;;
39044;SDS011;52192;52.002;5.956;2022-12-01T03:28:13;16.95;;;9.73;;
39044;SDS011;52192;52.002;5.956;2022-12-01T03:30:42;20.42;;;8.50;;
39044;SDS011;52192;52.002;5.956;2022-12-01T03:33:15;19.95;;;9.45;;
39044;SDS011;52192;52.002;5.956;2022-12-01T03:35:49;12.20;;;8.10;;
39044;SDS011;52192;52.002;5.956;2022-12-01T03:38:23;16.65;;;8.38;;
39044;SDS011;52192;52.002;5.956;2022-12-01T03:40:52;18.10;;;9.57;;
39044;SDS011;52192;52.002;5.956;2022-12-01T03:43:29;17.42;;;9.73;;
39044;SDS011;52192;52.002;5.956;2022-12-01T03:46:00;14.18;;;7.78;;
39044;SDS011;52192;52.002;5.956;2022-12-01T03:48:33;14.55;;;8.68;;
39044;SDS011;52192;52.002;5.956;2022-12-01T03:53:43;16.58;;;8.05;;
39044;SDS011;52192;52.002;5.956;2022-12-01T03:56:28;16.02;;;8.90;;
39044;SDS011;52192;52.002;5.956;2022-12-01T03:59:01;11.40;;;7.97;;
39044;SDS011;52192;52.002;5.956;2022-12-01T04:01:32;20.27;;;9.38;;
39044;SDS011;52192;52.002;5.956;2022-12-01T04:04:08;12.07;;;7.45;;
39044;SDS011;52192;52.002;5.956;2022-12-01T04:06:35;14.07;;;8.15;;
39044;SDS011;52192;52.002;5.956;2022-12-01T04:09:02;14.55;;;8.52;;
39044;SDS011;52192;52.002;5.956;2022-12-01T04:11:27;14.25;;;8.25;;
39044;SDS011;52192;52.002;5.956;2022-12-01T04:14:12;11.85;;;8.02;;
39044;SDS011;52192;52.002;5.956;2022-12-01T04:16:38;14.63;;;8.35;;
39044;SDS011;52192;52.002;5.956;2022-12-01T04:19:03;14.23;;;8.13;;
39044;SDS011;52192;52.002;5.956;2022-12-01T04:21:29;16.85;;;8.32;;
39044;SDS011;52192;52.002;5.956;2022-12-01T04:23:55;14.20;;;7.53;;
39044;SDS011;52192;52.002;5.956;2022-12-01T04:26:24;12.93;;;8.27;;
39044;SDS011;52192;52.002;5.956;2022-12-01T04:28:50;14.00;;;7.13;;
39044;SDS011;52192;52.002;5.956;2022-12-01T04:31:15;16.00;;;8.85;;
39044;SDS011;52192;52.002;5.956;2022-12-01T04:33:41;13.93;;;8.30;;
39044;SDS011;52192;52.002;5.956;2022-12-01T04:36:07;13.57;;;8.52;;
39044;SDS011;52192;52.002;5.956;2022-12-01T04:38:33;13.77;;;9.02;;
39044;SDS011;52192;52.002;5.956;2022-12-01T04:41:01;12.75;;;7.22;;
39044;SDS011;52192;52.002;5.956;2022-12-01T04:43:35;10.45;;;7.55;;
39044;SDS011;52192;52.002;5.956;2022-12-01T04:46:01;17.42;;;8.20;;
39044;SDS011;52192;52.002;5.956;2022-12-01T04:48:27;14.65;;;7.20;;
39044;SDS011;52192;52.002;5.956;2022-12-01T04:50:53;14.85;;;8.60;;
39044;SDS011;52192;52.002;5.956;2022-12-01T04:53:19;12.52;;;7.22;;
39044;SDS011;52192;52.002;5.956;2022-12-01T04:55:44;13.48;;;7.78;;
39044;SDS011;52192;52.002;5.956;2022-12-01T04:58:10;11.55;;;7.10;;
39044;SDS011;52192;52.002;5.956;2022-12-01T05:00:35;12.35;;;7.95;;
39044;SDS011;52192;52.002;5.956;2022-12-01T05:03:01;20.70;;;7.85;;
39044;SDS011;52192;52.002;5.956;2022-12-01T05:05:27;11.05;;;7.45;;
39044;SDS011;52192;52.002;5.956;2022-12-01T05:07:54;17.30;;;9.57;;
39044;SDS011;52192;52.002;5.956;2022-12-01T05:10:20;14.73;;;8.35;;
39044;SDS011;52192;52.002;5.956;2022-12-01T05:12:46;12.00;;;7.50;;
39044;SDS011;52192;52.002;5.956;2022-12-01T05:15:12;13.55;;;8.25;;
39044;SDS011;52192;52.002;5.956;2022-12-01T05:17:38;12.77;;;7.78;;
39044;SDS011;52192;52.002;5.956;2022-12-01T05:20:04;12.43;;;7.85;;
39044;SDS011;52192;52.002;5.956;2022-12-01T05:22:48;16.60;;;7.93;;
39044;SDS011;52192;52.002;5.956;2022-12-01T05:25:16;18.33;;;8.95;;
39044;SDS011;52192;52.002;5.956;2022-12-01T05:27:42;12.85;;;7.25;;
39044;SDS011;52192;52.002;5.956;2022-12-01T05:30:09;19.67;;;7.90;;
39044;SDS011;52192;52.002;5.956;2022-12-01T05:32:46;12.88;;;7.30;;
39044;SDS011;52192;52.002;5.956;2022-12-01T05:35:12;10.35;;;6.90;;
39044;SDS011;52192;52.002;5.956;2022-12-01T05:37:38;19.25;;;8.73;;
39044;SDS011;52192;52.002;5.956;2022-12-01T05:40:04;12.43;;;7.30;;
39044;SDS011;52192;52.002;5.956;2022-12-01T05:42:30;12.13;;;6.57;;
39044;SDS011;52192;52.002;5.956;2022-12-01T05:44:55;16.77;;;7.25;;
39044;SDS011;52192;52.002;5.956;2022-12-01T05:47:21;12.82;;;7.75;;
39044;SDS011;52192;52.002;5.956;2022-12-01T05:49:47;16.40;;;7.60;;
39044;SDS011;52192;52.002;5.956;2022-12-01T05:52:12;10.50;;;6.93;;
39044;SDS011;52192;52.002;5.956;2022-12-01T05:54:38;13.63;;;7.35;;
39044;SDS011;52192;52.002;5.956;2022-12-01T05:57:04;15.25;;;7.40;;
39044;SDS011;52192;52.002;5.956;2022-12-01T05:59:30;12.98;;;6.88;;
39044;SDS011;52192;52.002;5.956;2022-12-01T06:01:55;14.60;;;8.23;;
39044;SDS011;52192;52.002;5.956;2022-12-01T06:04:21;12.27;;;6.82;;
39044;SDS011;52192;52.002;5.956;2022-12-01T06:06:48;8.90;;;6.18;;
39044;SDS011;52192;52.002;5.956;2022-12-01T06:09:14;12.48;;;8.45;;
39044;SDS011;52192;52.002;5.956;2022-12-01T06:11:40;13.82;;;8.50;;
39044;SDS011;52192;52.002;5.956;2022-12-01T06:14:05;12.63;;;8.38;;
39044;SDS011;52192;52.002;5.956;2022-12-01T06:16:31;13.30;;;7.82;;
39044;SDS011;52192;52.002;5.956;2022-12-01T06:18:57;13.15;;;7.47;;
39044;SDS011;52192;52.002;5.956;2022-12-01T06:21:23;14.48;;;8.27;;
39044;SDS011;52192;52.002;5.956;2022-12-01T06:23:48;11.32;;;7.32;;
39044;SDS011;52192;52.002;5.956;2022-12-01T06:26:14;10.60;;;7.80;;
39044;SDS011;52192;52.002;5.956;2022-12-01T06:28:40;12.73;;;7.93;;
39044;SDS011;52192;52.002;5.956;2022-12-01T06:31:05;11.43;;;6.63;;
39044;SDS011;52192;52.002;5.956;2022-12-01T06:33:31;14.35;;;8.27;;
39044;SDS011;52192;52.002;5.956;2022-12-01T06:35:57;15.05;;;8.60;;
39044;SDS011;52192;52.002;5.956;2022-12-01T06:38:24;18.52;;;8.77;;
39044;SDS011;52192;52.002;5.956;2022-12-01T06:40:50;13.57;;;9.45;;
39044;SDS011;52192;52.002;5.956;2022-12-01T06:43:15;12.95;;;6.13;;
39044;SDS011;52192;52.002;5.956;2022-12-01T06:45:41;11.75;;;8.05;;
39044;SDS011;52192;52.002;5.956;2022-12-01T06:48:07;16.52;;;8.85;;
39044;SDS011;52192;52.002;5.956;2022-12-01T06:50:33;17.52;;;8.73;;
39044;SDS011;52192;52.002;5.956;2022-12-01T06:52:59;12.80;;;6.95;;
39044;SDS011;52192;52.002;5.956;2022-12-01T06:55:24;13.18;;;8.20;;
39044;SDS011;52192;52.002;5.956;2022-12-01T06:57:50;16.77;;;8.75;;
39044;SDS011;52192;52.002;5.956;2022-12-01T07:00:16;14.48;;;8.23;;
39044;SDS011;52192;52.002;5.956;2022-12-01T07:02:42;15.73;;;8.45;;
39044;SDS011;52192;52.002;5.956;2022-12-01T07:05:08;16.77;;;8.20;;
39044;SDS011;52192;52.002;5.956;2022-12-01T07:07:35;17.02;;;8.18;;
39044;SDS011;52192;52.002;5.956;2022-12-01T07:10:02;15.13;;;7.47;;
39044;SDS011;52192;52.002;5.956;2022-12-01T07:12:29;13.30;;;8.07;;
39044;SDS011;52192;52.002;5.956;2022-12-01T07:14:55;13.63;;;7.95;;
39044;SDS011;52192;52.002;5.956;2022-12-01T07:17:22;18.00;;;9.75;;
39044;SDS011;52192;52.002;5.956;2022-12-01T07:19:48;23.13;;;7.70;;
39044;SDS011;52192;52.002;5.956;2022-12-01T07:22:14;14.18;;;8.52;;
39044;SDS011;52192;52.002;5.956;2022-12-01T07:24:40;17.92;;;8.35;;
39044;SDS011;52192;52.002;5.956;2022-12-01T07:27:06;15.32;;;8.27;;
39044;SDS011;52192;52.002;5.956;2022-12-01T07:29:31;10.80;;;7.80;;
39044;SDS011;52192;52.002;5.956;2022-12-01T07:31:57;20.75;;;9.80;;
39044;SDS011;52192;52.002;5.956;2022-12-01T07:34:23;12.45;;;7.00;;
39044;SDS011;52192;52.002;5.956;2022-12-01T07:36:49;15.45;;;10.13;;
39044;SDS011;52192;52.002;5.956;2022-12-01T07:39:14;16.80;;;10.35;;
39044;SDS011;52192;52.002;5.956;2022-12-01T07:41:40;17.80;;;10.85;;
39044;SDS011;52192;52.002;5.956;2022-12-01T07:44:06;19.05;;;10.00;;
39044;SDS011;52192;52.002;5.956;2022-12-01T07:46:33;20.20;;;9.30;;
39044;SDS011;52192;52.002;5.956;2022-12-01T07:48:59;17.90;;;7.90;;
39044;SDS011;52192;52.002;5.956;2022-12-01T07:51:25;18.92;;;10.98;;
39044;SDS011;52192;52.002;5.956;2022-12-01T07:53:52;19.20;;;10.35;;
39044;SDS011;52192;52.002;5.956;2022-12-01T07:56:19;14.30;;;8.93;;
39044;SDS011;52192;52.002;5.956;2022-12-01T07:58:45;19.75;;;10.57;;
39044;SDS011;52192;52.002;5.956;2022-12-01T08:01:12;15.60;;;8.55;;
39044;SDS011;52192;52.002;5.956;2022-12-01T08:03:39;21.98;;;10.77;;
39044;SDS011;52192;52.002;5.956;2022-12-01T08:06:06;18.17;;;9.85;;
39044;SDS011;52192;52.002;5.956;2022-12-01T08:08:33;19.48;;;10.85;;
39044;SDS011;52192;52.002;5.956;2022-12-01T08:11:00;18.60;;;9.07;;
39044;SDS011;52192;52.002;5.956;2022-12-01T08:13:29;19.42;;;9.77;;
39044;SDS011;52192;52.002;5.956;2022-12-01T08:15:55;15.93;;;10.27;;
39044;SDS011;52192;52.002;5.956;2022-12-01T08:18:21;18.88;;;9.82;;
39044;SDS011;52192;52.002;5.956;2022-12-01T08:20:47;20.30;;;11.00;;
39044;SDS011;52192;52.002;5.956;2022-12-01T08:23:13;15.68;;;10.85;;
39044;SDS011;52192;52.002;5.956;2022-12-01T08:25:39;22.65;;;10.52;;
39044;SDS011;52192;52.002;5.956;2022-12-01T08:28:05;18.88;;;10.85;;
39044;SDS011;52192;52.002;5.956;2022-12-01T08:30:31;19.13;;;10.68;;
39044;SDS011;52192;52.002;5.956;2022-12-01T08:32:56;23.30;;;10.52;;
39044;SDS011;52192;52.002;5.956;2022-12-01T08:35:23;17.65;;;8.45;;
39044;SDS011;52192;52.002;5.956;2022-12-01T08:37:53;14.10;;;9.73;;
39044;SDS011;52192;52.002;5.956;2022-12-01T08:40:19;20.13;;;11.15;;
39044;SDS011;52192;52.002;5.956;2022-12-01T08:42:45;13.70;;;9.00;;
39044;SDS011;52192;52.002;5.956;2022-12-01T08:45:11;18.10;;;9.07;;
39044;SDS011;52192;52.002;5.956;2022-12-01T08:47:37;21.25;;;9.63;;
39044;SDS011;52192;52.002;5.956;2022-12-01T08:50:04;22.25;;;10.10;;
39044;SDS011;52192;52.002;5.956;2022-12-01T08:52:31;16.75;;;8.70;;
39044;SDS011;52192;52.002;5.956;2022-12-01T08:54:57;20.75;;;10.77;;
39044;SDS011;52192;52.002;5.956;2022-12-01T08:57:23;18.65;;;10.10;;
39044;SDS011;52192;52.002;5.956;2022-12-01T08:59:49;16.73;;;9.90;;
39044;SDS011;52192;52.002;5.956;2022-12-01T09:02:15;15.45;;;9.50;;
39044;SDS011;52192;52.002;5.956;2022-12-01T09:04:46;16.55;;;8.63;;
39044;SDS011;52192;52.002;5.956;2022-12-01T09:07:13;13.23;;;7.53;;
39044;SDS011;52192;52.002;5.956;2022-12-01T09:09:40;21.63;;;10.60;;
39044;SDS011;52192;52.002;5.956;2022-12-01T09:12:07;19.13;;;10.75;;
39044;SDS011;52192;52.002;5.956;2022-12-01T09:14:36;20.02;;;10.18;;
39044;SDS011;52192;52.002;5.956;2022-12-01T09:17:04;18.23;;;10.20;;
39044;SDS011;52192;52.002;5.956;2022-12-01T09:19:30;21.23;;;8.77;;
39044;SDS011;52192;52.002;5.956;2022-12-01T09:21:56;21.42;;;9.77;;
39044;SDS011;52192;52.002;5.956;2022-12-01T09:24:22;16.13;;;8.50;;
39044;SDS011;52192;52.002;5.956;2022-12-01T09:26:48;15.88;;;10.07;;
39044;SDS011;52192;52.002;5.956;2022-12-01T09:29:14;20.60;;;9.95;;
39044;SDS011;52192;52.002;5.956;2022-12-01T09:31:41;20.58;;;10.15;;
39044;SDS011;52192;52.002;5.956;2022-12-01T09:34:09;17.38;;;8.98;;
39044;SDS011;52192;52.002;5.956;2022-12-01T09:36:37;15.40;;;8.57;;
39044;SDS011;52192;52.002;5.956;2022-12-01T09:39:04;17.60;;;10.60;;
39044;SDS011;52192;52.002;5.956;2022-12-01T09:41:35;13.77;;;8.68;;
39044;SDS011;52192;52.002;5.956;2022-12-01T09:46:59;22.92;;;10.45;;
39044;SDS011;52192;52.002;5.956;2022-12-01T09:49:33;19.55;;;10.10;;
39044;SDS011;52192;52.002;5.956;2022-12-01T09:52:20;14.73;;;9.30;;
39044;SDS011;52192;52.002;5.956;2022-12-01T09:54:47;20.20;;;11.18;;
39044;SDS011;52192;52.002;5.956;2022-12-01T09:57:56;20.63;;;11.38;;
39044;SDS011;52192;52.002;5.956;2022-12-01T10:00:15;18.90;;;11.13;;
39044;SDS011;52192;52.002;5.956;2022-12-01T10:08:34;18.27;;;10.23;;
39044;SDS011;52192;52.002;5.956;2022-12-01T10:11:07;15.93;;;9.25;;
39044;SDS011;52192;52.002;5.956;2022-12-01T10:13:51;14.20;;;8.50;;
39044;SDS011;52192;52.002;5.956;2022-12-01T10:16:19;19.45;;;10.40;;
39044;SDS011;52192;52.002;5.956;2022-12-01T10:19:12;17.80;;;9.90;;
39044;SDS011;52192;52.002;5.956;2022-12-01T10:35:18;14.70;;;9.07;;
39044;SDS011;52192;52.002;5.956;2022-12-01T10:37:46;15.18;;;8.32;;
39044;SDS011;52192;52.002;5.956;2022-12-01T10:40:17;20.63;;;9.13;;
39044;SDS011;52192;52.002;5.956;2022-12-01T10:42:44;19.85;;;10.30;;
39044;SDS011;52192;52.002;5.956;2022-12-01T10:45:16;22.52;;;12.45;;
39044;SDS011;52192;52.002;5.956;2022-12-01T10:48:06;21.27;;;11.48;;
39044;SDS011;52192;52.002;5.956;2022-12-01T10:52:59;17.27;;;10.40;;
39044;SDS011;52192;52.002;5.956;2022-12-01T10:55:28;19.23;;;10.93;;
39044;SDS011;52192;52.002;5.956;2022-12-01T10:57:59;24.58;;;11.45;;
39044;SDS011;52192;52.002;5.956;2022-12-01T11:00:33;17.65;;;11.02;;
39044;SDS011;52192;52.002;5.956;2022-12-01T11:03:02;22.45;;;11.18;;
39044;SDS011;52192;52.002;5.956;2022-12-01T11:05:38;23.92;;;10.73;;
39044;SDS011;52192;52.002;5.956;2022-12-01T11:08:17;16.95;;;10.82;;
39044;SDS011;52192;52.002;5.956;2022-12-01T11:10:51;25.70;;;12.15;;
39044;SDS011;52192;52.002;5.956;2022-12-01T11:13:20;19.63;;;11.52;;
39044;SDS011;52192;52.002;5.956;2022-12-01T11:15:50;17.58;;;9.43;;
39044;SDS011;52192;52.002;5.956;2022-12-01T11:23:47;20.20;;;8.75;;
39044;SDS011;52192;52.002;5.956;2022-12-01T11:31:33;15.85;;;8.32;;
39044;SDS011;52192;52.002;5.956;2022-12-01T11:34:00;15.88;;;8.57;;
39044;SDS011;52192;52.002;5.956;2022-12-01T11:36:29;12.63;;;7.50;;
39044;SDS011;52192;52.002;5.956;2022-12-01T11:39:02;16.17;;;7.03;;
39044;SDS011;52192;52.002;5.956;2022-12-01T11:41:32;13.98;;;7.30;;
39044;SDS011;52192;52.002;5.956;2022-12-01T11:44:02;15.73;;;6.72;;
39044;SDS011;52192;52.002;5.956;2022-12-01T11:46:35;12.20;;;7.05;;
39044;SDS011;52192;52.002;5.956;2022-12-01T11:49:05;13.30;;;6.55;;
39044;SDS011;52192;52.002;5.956;2022-12-01T11:51:49;15.88;;;6.95;;
39044;SDS011;52192;52.002;5.956;2022-12-01T11:56:46;10.70;;;5.97;;
39044;SDS011;52192;52.002;5.956;2022-12-01T11:59:17;9.57;;;5.00;;
39044;SDS011;52192;52.002;5.956;2022-12-01T12:12:22;12.35;;;5.68;;
39044;SDS011;52192;52.002;5.956;2022-12-01T12:49:46;11.63;;;6.18;;
39044;SDS011;52192;52.002;5.956;2022-12-01T12:52:32;10.52;;;5.68;;
39044;SDS011;52192;52.002;5.956;2022-12-01T12:55:13;13.02;;;5.85;;
39044;SDS011;52192;52.002;5.956;2022-12-01T13:00:26;11.88;;;6.18;;
39044;SDS011;52192;52.002;5.956;2022-12-01T13:05:48;11.38;;;6.68;;
39044;SDS011;52192;52.002;5.956;2022-12-01T13:08:30;11.60;;;7.60;;
39044;SDS011;52192;52.002;5.956;2022-12-01T13:11:07;11.77;;;6.13;;
39044;SDS011;52192;52.002;5.956;2022-12-01T13:16:19;12.10;;;5.72;;
39044;SDS011;52192;52.002;5.956;2022-12-01T13:18:54;10.75;;;6.82;;
39044;SDS011;52192;52.002;5.956;2022-12-01T13:21:27;8.57;;;5.95;;
39044;SDS011;52192;52.002;5.956;2022-12-01T13:23:56;13.68;;;6.70;;
39044;SDS011;52192;52.002;5.956;2022-12-01T13:26:22;13.40;;;6.53;;
39044;SDS011;52192;52.002;5.956;2022-12-01T13:28:54;11.93;;;6.80;;
39044;SDS011;52192;52.002;5.956;2022-12-01T13:31:21;12.68;;;5.90;;
39044;SDS011;52192;52.002;5.956;2022-12-01T13:33:54;11.13;;;5.88;;
39044;SDS011;52192;52.002;5.956;2022-12-01T13:36:25;10.50;;;7.03;;
39044;SDS011;52192;52.002;5.956;2022-12-01T13:42:00;20.48;;;7.72;;
39044;SDS011;52192;52.002;5.956;2022-12-01T13:44:43;16.05;;;7.55;;
39044;SDS011;52192;52.002;5.956;2022-12-01T13:49:45;11.20;;;6.10;;
39044;SDS011;52192;52.002;5.956;2022-12-01T13:57:32;9.95;;;5.72;;
39044;SDS011;52192;52.002;5.956;2022-12-01T14:00:20;15.85;;;6.38;;
39044;SDS011;52192;52.002;5.956;2022-12-01T14:08:18;12.05;;;5.70;;
39044;SDS011;52192;52.002;5.956;2022-12-01T14:10:52;13.93;;;7.35;;
39044;SDS011;52192;52.002;5.956;2022-12-01T14:13:25;14.00;;;6.35;;
39044;SDS011;52192;52.002;5.956;2022-12-01T14:15:59;14.13;;;7.50;;
39044;SDS011;52192;52.002;5.956;2022-12-01T14:20:57;13.70;;;6.68;;
39044;SDS011;52192;52.002;5.956;2022-12-01T14:23:26;10.98;;;6.38;;
39044;SDS011;52192;52.002;5.956;2022-12-01T14:26:00;10.60;;;5.75;;
39044;SDS011;52192;52.002;5.956;2022-12-01T14:31:23;14.98;;;6.70;;
39044;SDS011;52192;52.002;5.956;2022-12-01T14:34:07;15.52;;;7.60;;
39044;SDS011;52192;52.002;5.956;2022-12-01T14:36:39;11.10;;;6.72;;
39044;SDS011;52192;52.002;5.956;2022-12-01T14:39:42;12.70;;;6.63;;
39044;SDS011;52192;52.002;5.956;2022-12-01T14:42:05;13.65;;;6.60;;
39044;SDS011;52192;52.002;5.956;2022-12-01T14:45:09;15.52;;;6.63;;
39044;SDS011;52192;52.002;5.956;2022-12-01T14:47:41;12.80;;;6.18;;
39044;SDS011;52192;52.002;5.956;2022-12-01T14:50:21;9.20;;;5.88;;
39044;SDS011;52192;52.002;5.956;2022-12-01T14:52:54;13.80;;;7.72;;
39044;SDS011;52192;52.002;5.956;2022-12-01T14:55:26;11.40;;;6.88;;
39044;SDS011;52192;52.002;5.956;2022-12-01T14:58:05;14.23;;;7.45;;
39044;SDS011;52192;52.002;5.956;2022-12-01T15:00:53;14.60;;;6.53;;
39044;SDS011;52192;52.002;5.956;2022-12-01T15:03:36;12.38;;;6.45;;
39044;SDS011;52192;52.002;5.956;2022-12-01T15:06:03;10.70;;;6.07;;
39044;SDS011;52192;52.002;5.956;2022-12-01T15:08:29;11.48;;;6.10;;
39044;SDS011;52192;52.002;5.956;2022-12-01T15:10:57;12.75;;;7.07;;
39044;SDS011;52192;52.002;5.956;2022-12-01T15:15:55;14.68;;;5.93;;
39044;SDS011;52192;52.002;5.956;2022-12-01T15:18:26;10.00;;;6.13;;
39044;SDS011;52192;52.002;5.956;2022-12-01T15:23:57;14.25;;;7.53;;
39044;SDS011;52192;52.002;5.956;2022-12-01T15:26:44;13.98;;;8.27;;
39044;SDS011;52192;52.002;5.956;2022-12-01T15:29:13;13.98;;;6.85;;
39044;SDS011;52192;52.002;5.956;2022-12-01T15:31:39;16.30;;;7.82;;
39044;SDS011;52192;52.002;5.956;2022-12-01T15:34:08;9.38;;;6.82;;
39044;SDS011;52192;52.002;5.956;2022-12-01T15:36:48;18.95;;;8.75;;
39044;SDS011;52192;52.002;5.956;2022-12-01T15:39:16;14.52;;;7.22;;
39044;SDS011;52192;52.002;5.956;2022-12-01T15:41:45;14.85;;;8.65;;
39044;SDS011;52192;52.002;5.956;2022-12-01T15:44:24;16.30;;;8.30;;
39044;SDS011;52192;52.002;5.956;2022-12-01T15:46:53;17.75;;;8.35;;
39044;SDS011;52192;52.002;5.956;2022-12-01T15:49:29;13.95;;;7.13;;
39044;SDS011;52192;52.002;5.956;2022-12-01T15:52:04;14.77;;;7.63;;
39044;SDS011;52192;52.002;5.956;2022-12-01T15:54:32;12.40;;;6.47;;
39044;SDS011;52192;52.002;5.956;2022-12-01T15:56:58;14.13;;;8.02;;
39044;SDS011;52192;52.002;5.956;2022-12-01T15:59:30;12.38;;;7.10;;
39044;SDS011;52192;52.002;5.956;2022-12-01T16:02:10;12.88;;;6.50;;
39044;SDS011;52192;52.002;5.956;2022-12-01T16:04:48;15.10;;;7.43;;
39044;SDS011;52192;52.002;5.956;2022-12-01T16:07:23;12.15;;;6.22;;
39044;SDS011;52192;52.002;5.956;2022-12-01T16:09:56;11.77;;;6.90;;
39044;SDS011;52192;52.002;5.956;2022-12-01T16:12:23;12.55;;;6.20;;
39044;SDS011;52192;52.002;5.956;2022-12-01T16:17:25;10.20;;;7.13;;
39044;SDS011;52192;52.002;5.956;2022-12-01T16:20:30;12.88;;;7.30;;
39044;SDS011;52192;52.002;5.956;2022-12-01T16:22:53;14.48;;;6.78;;
39044;SDS011;52192;52.002;5.956;2022-12-01T16:28:02;10.13;;;7.18;;
39044;SDS011;52192;52.002;5.956;2022-12-01T16:30:33;13.63;;;8.15;;
39044;SDS011;52192;52.002;5.956;2022-12-01T16:33:05;14.77;;;7.28;;
39044;SDS011;52192;52.002;5.956;2022-12-01T16:35:40;8.88;;;6.90;;
39044;SDS011;52192;52.002;5.956;2022-12-01T16:38:13;18.92;;;8.20;;
39044;SDS011;52192;52.002;5.956;2022-12-01T16:40:43;12.38;;;6.88;;
39044;SDS011;52192;52.002;5.956;2022-12-01T16:43:11;10.75;;;7.43;;
39044;SDS011;52192;52.002;5.956;2022-12-01T16:45:41;13.50;;;7.88;;
39044;SDS011;52192;52.002;5.956;2022-12-01T16:48:07;14.57;;;6.60;;
39044;SDS011;52192;52.002;5.956;2022-12-01T16:50:33;11.27;;;7.10;;
39044;SDS011;52192;52.002;5.956;2022-12-01T16:52:59;16.65;;;7.05;;
39044;SDS011;52192;52.002;5.956;2022-12-01T16:55:27;11.88;;;5.95;;
39044;SDS011;52192;52.002;5.956;2022-12-01T16:57:54;15.35;;;7.40;;
39044;SDS011;52192;52.002;5.956;2022-12-01T17:00:20;14.05;;;7.22;;
39044;SDS011;52192;52.002;5.956;2022-12-01T17:02:47;13.07;;;7.45;;
39044;SDS011;52192;52.002;5.956;2022-12-01T17:05:12;10.95;;;7.05;;
39044;SDS011;52192;52.002;5.956;2022-12-01T17:07:38;14.20;;;6.70;;
39044;SDS011;52192;52.002;5.956;2022-12-01T17:10:04;16.30;;;8.02;;
39044;SDS011;52192;52.002;5.956;2022-12-01T17:12:30;11.15;;;6.30;;
39044;SDS011;52192;52.002;5.956;2022-12-01T17:14:56;17.00;;;7.95;;
39044;SDS011;52192;52.002;5.956;2022-12-01T17:17:21;11.98;;;7.78;;
39044;SDS011;52192;52.002;5.956;2022-12-01T17:19:47;15.15;;;8.20;;
39044;SDS011;52192;52.002;5.956;2022-12-01T17:22:16;10.15;;;6.68;;
39044;SDS011;52192;52.002;5.956;2022-12-01T17:24:42;13.02;;;8.98;;
39044;SDS011;52192;52.002;5.956;2022-12-01T17:27:08;14.70;;;8.65;;